createdAt,value
2022-10-11T00:00:00.947Z,12.09
2022-10-11T00:02:28.111Z,12.11
2022-10-11T00:04:57.462Z,12.10
2022-10-11T00:07:24.305Z,12.08
2022-10-11T00:09:51.146Z,12.20
2022-10-11T00:12:18.259Z,12.14
2022-10-11T00:14:45.082Z,12.04
2022-10-11T00:17:11.930Z,11.95
2022-10-11T00:19:39.038Z,11.90
2022-10-11T00:22:05.941Z,11.79
2022-10-11T00:24:32.810Z,11.65
2022-10-11T00:26:59.921Z,11.66
2022-10-11T00:29:26.819Z,11.63
2022-10-11T00:31:53.682Z,11.56
2022-10-11T00:34:20.773Z,11.50
2022-10-11T00:36:48.638Z,11.42
2022-10-11T00:39:15.539Z,11.36
2022-10-11T00:41:42.646Z,11.30
2022-10-11T00:44:11.754Z,11.30
2022-10-11T00:46:40.767Z,11.17
2022-10-11T00:49:44.234Z,11.07
2022-10-11T00:52:19.786Z,10.97
2022-10-11T00:54:47.810Z,10.96
2022-10-11T00:57:19.397Z,10.93
2022-10-11T00:59:50.966Z,10.91
2022-10-11T01:02:18.480Z,10.88
2022-10-11T01:04:45.443Z,10.90
2022-10-11T01:07:12.973Z,10.88
2022-10-11T01:09:39.929Z,10.87
2022-10-11T01:12:13.946Z,10.79
2022-10-11T01:15:02.969Z,10.75
2022-10-11T01:17:41.137Z,10.71
2022-10-11T01:20:20.719Z,10.67
2022-10-11T01:22:56.458Z,10.62
2022-10-11T01:25:29.594Z,10.67
2022-10-11T01:28:08.390Z,10.69
2022-10-11T01:30:36.977Z,10.63
2022-10-11T01:33:15.794Z,10.60
2022-10-11T01:35:49.191Z,10.60
2022-10-11T01:38:38.251Z,10.67
2022-10-11T01:41:13.284Z,10.61
2022-10-11T01:43:41.429Z,10.69
2022-10-11T01:46:09.609Z,10.68
2022-10-11T01:48:56.920Z,10.74
2022-10-11T01:51:34.006Z,10.69
2022-10-11T01:54:19.179Z,10.65
2022-10-11T01:57:15.641Z,10.66
2022-10-11T02:00:18.512Z,10.59
2022-10-11T02:03:07.331Z,10.53
2022-10-11T02:06:00.010Z,10.53
2022-10-11T02:09:09.308Z,10.59
2022-10-11T02:11:36.535Z,10.61
2022-10-11T02:14:09.593Z,10.65
2022-10-11T02:16:45.177Z,10.84
2022-10-11T02:19:13.610Z,10.73
2022-10-11T02:21:43.131Z,10.70
2022-10-11T02:24:15.027Z,10.75
2022-10-11T02:26:43.919Z,10.73
2022-10-11T02:29:12.476Z,10.79
2022-10-11T02:31:39.757Z,10.80
2022-10-11T02:34:16.922Z,10.77
2022-10-11T02:36:52.751Z,10.72
2022-10-11T02:39:31.355Z,10.67
2022-10-11T02:42:00.251Z,10.62
2022-10-11T02:44:43.035Z,10.56
2022-10-11T02:47:10.084Z,10.60
2022-10-11T02:49:37.184Z,10.56
2022-10-11T02:52:05.900Z,10.56
2022-10-11T02:54:32.817Z,10.57
2022-10-11T02:56:59.931Z,10.55
2022-10-11T02:59:26.771Z,10.50
2022-10-11T03:01:53.713Z,10.48
2022-10-11T03:04:20.904Z,10.49
2022-10-11T03:06:47.761Z,10.54
2022-10-11T03:09:14.630Z,10.52
2022-10-11T03:11:41.729Z,10.51
2022-10-11T03:14:08.603Z,10.54
2022-10-11T03:16:35.452Z,10.47
2022-10-11T03:19:02.573Z,10.41
2022-10-11T03:21:29.442Z,10.45
2022-10-11T03:23:56.270Z,10.53
2022-10-11T03:26:23.456Z,10.50
2022-10-11T03:28:50.353Z,10.50
2022-10-11T03:31:21.840Z,10.46
2022-10-11T03:33:48.957Z,10.42
2022-10-11T03:36:16.138Z,10.37
2022-10-11T03:38:43.059Z,10.28
2022-10-11T03:41:10.168Z,10.09
2022-10-11T03:43:37.160Z,10.03
2022-10-11T03:46:04.394Z,10.00
2022-10-11T03:48:31.665Z,9.93
2022-10-11T03:50:58.497Z,9.90
2022-10-11T03:53:25.362Z,9.78
2022-10-11T03:55:54.340Z,9.77
2022-10-11T03:58:22.003Z,9.85
2022-10-11T04:00:49.190Z,9.76
2022-10-11T04:03:16.320Z,9.82
2022-10-11T04:05:43.165Z,9.85
2022-10-11T04:08:12.387Z,9.83
2022-10-11T04:10:40.080Z,9.83
2022-10-11T04:13:07.445Z,9.84
2022-10-11T04:15:34.329Z,9.84
2022-10-11T04:18:01.738Z,9.83
2022-10-11T04:20:28.586Z,9.88
2022-10-11T04:22:55.427Z,9.85
2022-10-11T04:25:22.511Z,9.81
2022-10-11T04:27:49.351Z,9.94
2022-10-11T04:30:16.607Z,10.09
2022-10-11T04:32:43.755Z,10.15
2022-10-11T04:35:11.212Z,10.26
2022-10-11T04:37:38.066Z,10.37
2022-10-11T04:40:06.821Z,10.46
2022-10-11T04:42:34.453Z,10.55
2022-10-11T04:45:01.371Z,10.68
2022-10-11T04:47:28.502Z,10.72
2022-10-11T04:49:55.351Z,10.77
2022-10-11T04:52:25.576Z,10.81
2022-10-11T04:54:53.137Z,10.91
2022-10-11T04:57:20.002Z,10.98
2022-10-11T04:59:50.145Z,10.97
2022-10-11T05:02:17.513Z,11.02
2022-10-11T05:04:44.739Z,11.10
2022-10-11T05:07:11.608Z,11.15
2022-10-11T05:09:38.705Z,11.15
2022-10-11T05:12:05.941Z,11.03
2022-10-11T05:14:32.800Z,11.10
2022-10-11T05:16:59.930Z,11.14
2022-10-11T05:19:26.813Z,11.20
2022-10-11T05:21:55.066Z,11.19
2022-10-11T05:24:22.200Z,11.34
2022-10-11T05:26:49.507Z,11.37
2022-10-11T05:29:16.350Z,11.43
2022-10-11T05:31:43.457Z,11.55
2022-10-11T05:34:10.303Z,11.63
2022-10-11T05:36:37.234Z,11.74
2022-10-11T05:39:04.506Z,11.71
2022-10-11T05:41:31.497Z,11.83
2022-10-11T05:43:58.377Z,11.87
2022-10-11T05:46:25.484Z,11.98
2022-10-11T05:48:55.141Z,12.04
2022-10-11T05:51:21.978Z,12.14
2022-10-11T05:53:49.285Z,12.13
2022-10-11T05:56:23.365Z,12.18
2022-10-11T05:58:52.598Z,12.27
2022-10-11T06:01:27.042Z,12.34
2022-10-11T06:03:57.310Z,12.44
2022-10-11T06:06:27.200Z,12.49
2022-10-11T06:08:57.177Z,12.57
2022-10-11T06:11:34.876Z,12.62
2022-10-11T06:14:05.863Z,12.71
2022-10-11T06:16:32.741Z,12.69
2022-10-11T06:18:59.609Z,12.83
2022-10-11T06:21:26.757Z,12.94
2022-10-11T06:23:59.862Z,13.06
2022-10-11T06:26:29.095Z,13.46
2022-10-11T06:28:56.449Z,14.22
2022-10-11T06:31:26.474Z,15.07
2022-10-11T06:33:56.516Z,16.14
2022-10-11T06:36:26.175Z,16.17
2022-10-11T06:38:56.446Z,16.39
2022-10-11T06:41:26.214Z,17.33
2022-10-11T06:43:56.872Z,17.94
2022-10-11T06:46:27.242Z,17.88
2022-10-11T06:48:57.522Z,18.97
2022-10-11T06:51:28.644Z,19.31
2022-10-11T06:54:00.073Z,19.70
2022-10-11T06:56:31.255Z,20.03
2022-10-11T06:58:59.392Z,20.82
2022-10-11T07:01:26.719Z,20.56
2022-10-11T07:03:58.220Z,20.47
2022-10-11T07:06:28.952Z,19.57
2022-10-11T07:09:00.350Z,19.00
2022-10-11T07:11:28.233Z,18.64
2022-10-11T07:14:00.166Z,18.05
2022-10-11T07:16:28.071Z,17.77
2022-10-11T07:19:00.562Z,17.98
2022-10-11T07:21:28.924Z,18.06
2022-10-11T07:23:55.858Z,17.97
2022-10-11T07:26:25.849Z,17.98
2022-10-11T07:28:55.833Z,17.99
2022-10-11T07:31:24.908Z,17.91
2022-10-11T07:33:54.117Z,17.93
2022-10-11T07:36:24.201Z,17.98
2022-10-11T07:38:53.563Z,18.30
2022-10-11T07:41:20.732Z,18.79
2022-10-11T07:43:51.072Z,19.33
2022-10-11T07:46:20.435Z,19.36
2022-10-11T07:48:47.639Z,20.24
2022-10-11T07:51:20.288Z,20.42
2022-10-11T07:53:49.518Z,20.48
2022-10-11T07:56:19.440Z,20.92
2022-10-11T07:58:53.750Z,20.97
2022-10-11T08:01:22.552Z,21.38
2022-10-11T08:03:50.274Z,20.51
2022-10-11T08:06:20.469Z,19.80
2022-10-11T08:08:47.376Z,19.64
2022-10-11T08:11:25.825Z,19.90
2022-10-11T08:13:55.851Z,20.70
2022-10-11T08:16:25.980Z,20.25
2022-10-11T08:18:56.991Z,20.07
2022-10-11T08:21:27.179Z,20.16
2022-10-11T08:24:14.064Z,20.88
2022-10-11T08:27:00.953Z,20.29
2022-10-11T08:29:47.603Z,20.21
2022-10-11T08:32:34.561Z,19.47
2022-10-11T08:35:21.249Z,19.59
2022-10-11T08:38:08.182Z,19.54
2022-10-11T08:40:56.917Z,20.25
2022-10-11T08:43:57.952Z,20.02
2022-10-11T08:47:00.450Z,20.29
2022-10-11T08:49:47.642Z,20.05
2022-10-11T08:53:06.567Z,20.64
2022-10-11T08:55:45.061Z,19.61
2022-10-11T08:58:15.820Z,20.24
2022-10-11T09:00:44.795Z,21.20
2022-10-11T09:03:34.229Z,21.35
2022-10-11T09:06:20.403Z,22.28
2022-10-11T09:09:32.866Z,22.99
2022-10-11T09:12:05.763Z,22.91
2022-10-11T09:14:38.604Z,20.93
2022-10-11T09:17:14.762Z,22.73
2022-10-11T09:19:57.405Z,23.26
2022-10-11T09:22:37.915Z,23.37
2022-10-11T09:25:24.703Z,22.76
2022-10-11T09:28:03.601Z,23.87
2022-10-11T09:30:32.114Z,23.03
2022-10-11T09:33:12.523Z,22.96
2022-10-11T09:35:46.622Z,21.50
2022-10-11T09:38:18.241Z,20.66
2022-10-11T09:41:25.832Z,20.12
2022-10-11T09:43:55.961Z,19.63
2022-10-11T09:46:36.867Z,19.62
2022-10-11T09:49:08.197Z,19.24
2022-10-11T09:51:35.102Z,18.97
2022-10-11T09:54:05.283Z,18.45
2022-10-11T09:56:34.375Z,19.01
2022-10-11T09:59:08.852Z,18.89
2022-10-11T10:01:36.414Z,18.67
2022-10-11T10:04:12.423Z,19.19
2022-10-11T10:06:40.089Z,19.51
2022-10-11T10:09:26.229Z,18.90
2022-10-11T10:11:55.016Z,19.26
2022-10-11T10:14:25.659Z,19.08
2022-10-11T10:17:00.897Z,18.95
2022-10-11T10:19:28.536Z,19.56
2022-10-11T10:21:56.124Z,19.49
2022-10-11T10:24:38.380Z,19.42
2022-10-11T10:27:14.288Z,19.63
2022-10-11T10:29:41.696Z,19.93
2022-10-11T10:32:15.492Z,20.23
2022-10-11T10:35:10.557Z,20.66
2022-10-11T10:37:48.646Z,20.63
2022-10-11T10:40:23.354Z,20.73
2022-10-11T10:42:51.098Z,21.06
2022-10-11T10:45:21.502Z,21.25
2022-10-11T10:49:11.764Z,21.10
2022-10-11T10:51:38.325Z,21.29
2022-10-11T10:54:12.008Z,20.87
2022-10-11T10:57:00.119Z,20.49
2022-10-11T10:59:52.343Z,20.90
2022-10-11T11:02:39.564Z,20.67
2022-10-11T11:05:22.803Z,20.30
2022-10-11T11:08:08.365Z,20.55
2022-10-11T11:10:53.157Z,20.83
2022-10-11T11:13:23.205Z,20.79
2022-10-11T11:16:12.184Z,20.93
2022-10-11T11:18:54.404Z,20.95
2022-10-11T11:21:59.206Z,20.83
2022-10-11T11:24:47.179Z,20.51
2022-10-11T11:27:35.302Z,20.65
2022-10-11T11:30:09.699Z,19.82
2022-10-11T11:33:02.364Z,20.32
2022-10-11T11:35:37.117Z,20.61
2022-10-11T11:38:23.048Z,20.81
2022-10-11T11:40:55.796Z,20.49
2022-10-11T11:43:36.601Z,19.72
2022-10-11T11:46:16.275Z,19.64
2022-10-11T11:48:43.610Z,20.15
2022-10-11T11:51:21.658Z,20.03
2022-10-11T11:54:17.650Z,19.88
2022-10-11T11:57:04.471Z,20.15
2022-10-11T11:59:33.978Z,20.44
2022-10-11T12:02:21.253Z,20.56
2022-10-11T12:04:49.356Z,20.42
2022-10-11T12:07:18.915Z,20.29
2022-10-11T12:09:50.636Z,20.13
2022-10-11T12:12:34.026Z,20.29
2022-10-11T12:15:10.211Z,20.23
2022-10-11T12:17:59.147Z,20.30
2022-10-11T12:20:33.315Z,20.12
2022-10-11T12:23:10.242Z,20.41
2022-10-11T12:25:41.879Z,20.57
2022-10-11T12:28:37.004Z,20.35
2022-10-11T12:31:06.776Z,20.50
2022-10-11T12:33:33.960Z,20.62
2022-10-11T12:36:40.126Z,20.42
2022-10-11T12:39:22.777Z,20.18
2022-10-11T12:41:55.557Z,20.19
2022-10-11T12:44:26.297Z,20.38
2022-10-11T12:46:57.654Z,20.63
2022-10-11T12:49:33.990Z,19.89
2022-10-11T12:52:20.243Z,19.84
2022-10-11T12:55:06.040Z,20.01
2022-10-11T12:57:51.514Z,19.86
2022-10-11T13:00:29.963Z,19.81
2022-10-11T13:03:00.432Z,19.66
2022-10-11T13:05:36.800Z,19.51
2022-10-11T13:08:05.619Z,19.68
2022-10-11T13:10:42.489Z,19.84
2022-10-11T13:13:25.692Z,19.82
2022-10-11T13:15:54.353Z,20.04
2022-10-11T13:18:24.354Z,19.95
2022-10-11T13:20:51.240Z,20.14
2022-10-11T13:23:37.517Z,20.13
2022-10-11T13:26:25.869Z,20.40
2022-10-11T13:29:17.942Z,20.60
2022-10-11T13:31:48.280Z,20.30
2022-10-11T13:34:17.659Z,20.43
2022-10-11T13:36:48.019Z,20.33
2022-10-11T13:39:34.634Z,20.31
2022-10-11T13:42:07.617Z,20.44
2022-10-11T13:44:36.795Z,19.87
2022-10-11T13:47:03.985Z,19.98
2022-10-11T13:49:40.039Z,19.75
2022-10-11T13:52:21.056Z,19.80
2022-10-11T13:55:18.051Z,20.11
2022-10-11T13:57:46.917Z,20.44
2022-10-11T14:00:19.843Z,20.63
2022-10-11T14:02:52.579Z,20.75
2022-10-11T14:05:34.775Z,20.90
2022-10-11T14:08:30.155Z,20.76
2022-10-11T14:11:01.297Z,20.75
2022-10-11T14:13:36.715Z,20.19
2022-10-11T14:16:09.698Z,20.27
2022-10-11T14:18:36.877Z,20.23
2022-10-11T14:21:18.971Z,20.21
2022-10-11T14:24:18.257Z,20.06
2022-10-11T14:26:50.207Z,19.84
2022-10-11T14:29:34.886Z,19.78
2022-10-11T14:32:05.141Z,19.75
2022-10-11T14:34:32.444Z,19.97
2022-10-11T14:36:59.371Z,19.76
2022-10-11T14:39:28.379Z,19.87
2022-10-11T14:41:55.531Z,19.77
2022-10-11T14:44:22.709Z,19.67
2022-10-11T14:46:54.031Z,19.67
2022-10-11T14:49:26.537Z,19.77
2022-10-11T14:51:55.395Z,19.57
2022-10-11T14:54:23.725Z,19.59
2022-10-11T14:56:54.919Z,19.54
2022-10-11T14:59:24.529Z,19.51
2022-10-11T15:01:53.797Z,19.38
2022-10-11T15:04:22.364Z,19.38
2022-10-11T15:06:49.880Z,19.31
2022-10-11T15:09:17.335Z,19.17
2022-10-11T15:11:44.183Z,19.16
2022-10-11T15:14:11.029Z,19.08
2022-10-11T15:16:39.974Z,19.07
2022-10-11T15:19:09.997Z,18.98
2022-10-11T15:21:36.869Z,18.93
2022-10-11T15:24:04.006Z,18.88
2022-10-11T15:26:30.935Z,18.89
2022-10-11T15:29:00.660Z,18.74
2022-10-11T15:31:27.816Z,18.71
2022-10-11T15:33:59.708Z,18.74
2022-10-11T15:36:29.632Z,18.76
2022-10-11T15:39:00.079Z,18.67
2022-10-11T15:41:29.832Z,18.59
2022-10-11T15:44:00.362Z,18.47
2022-10-11T15:46:27.206Z,18.49
2022-10-11T15:48:56.815Z,18.48
2022-10-11T15:51:28.428Z,18.40
2022-10-11T15:53:58.105Z,18.35
2022-10-11T15:56:32.906Z,18.29
2022-10-11T15:59:00.703Z,18.35
2022-10-11T16:01:27.883Z,18.37
2022-10-11T16:03:55.088Z,18.54
2022-10-11T16:06:22.061Z,18.49
2022-10-11T16:08:51.606Z,18.43
2022-10-11T16:11:18.726Z,18.35
2022-10-11T16:13:45.557Z,18.27
2022-10-11T16:16:12.871Z,18.20
2022-10-11T16:18:40.133Z,18.09
2022-10-11T16:21:10.146Z,18.09
2022-10-11T16:23:37.802Z,18.04
2022-10-11T16:26:08.192Z,17.98
2022-10-11T16:28:35.894Z,17.97
2022-10-11T16:31:07.950Z,17.91
2022-10-11T16:33:35.390Z,17.84
2022-10-11T16:36:28.895Z,17.79
2022-10-11T16:38:59.667Z,17.70
2022-10-11T16:41:29.603Z,17.64
2022-10-11T16:43:59.887Z,17.56
2022-10-11T16:46:29.646Z,17.37
2022-10-11T16:49:00.113Z,17.37
2022-10-11T16:51:26.993Z,17.32
2022-10-11T16:53:56.744Z,17.16
2022-10-11T16:56:27.307Z,17.09
2022-10-11T16:58:57.106Z,17.10
2022-10-11T17:01:27.959Z,17.08
2022-10-11T17:03:58.171Z,16.99
2022-10-11T17:06:28.545Z,16.83
2022-10-11T17:08:55.446Z,16.72
2022-10-11T17:11:24.383Z,16.63
2022-10-11T17:13:53.343Z,16.55
2022-10-11T17:16:22.199Z,16.55
2022-10-11T17:18:49.353Z,16.55
2022-10-11T17:21:17.795Z,16.53
2022-10-11T17:23:45.050Z,16.49
2022-10-11T17:26:20.718Z,16.46
2022-10-11T17:28:47.987Z,16.50
2022-10-11T17:31:15.131Z,16.49
2022-10-11T17:33:42.438Z,16.51
2022-10-11T17:36:34.457Z,16.48
2022-10-11T17:39:03.094Z,16.44
2022-10-11T17:41:32.216Z,16.46
2022-10-11T17:43:59.866Z,16.50
2022-10-11T17:46:28.114Z,16.46
2022-10-11T17:48:59.795Z,16.43
2022-10-11T17:51:27.401Z,16.48
2022-10-11T17:53:57.647Z,16.49
2022-10-11T17:56:33.711Z,16.46
2022-10-11T17:59:03.657Z,16.44
2022-10-11T18:01:30.825Z,16.33
2022-10-11T18:04:00.069Z,16.26
2022-10-11T18:06:30.300Z,16.20
2022-10-11T18:09:00.262Z,16.07
2022-10-11T18:11:27.117Z,15.99
2022-10-11T18:13:57.124Z,15.92
2022-10-11T18:16:28.951Z,15.86
2022-10-11T18:18:59.015Z,15.86
2022-10-11T18:21:34.247Z,15.86
2022-10-11T18:24:03.721Z,15.77
2022-10-11T18:26:31.203Z,15.74
2022-10-11T18:28:58.758Z,15.78
2022-10-11T18:31:30.380Z,15.77
2022-10-11T18:33:57.735Z,15.74
2022-10-11T18:36:28.891Z,15.70
2022-10-11T18:38:58.643Z,15.66
2022-10-11T18:41:31.896Z,15.59
2022-10-11T18:44:04.384Z,15.48
2022-10-11T18:46:31.831Z,15.39
2022-10-11T18:49:01.228Z,15.34
2022-10-11T18:51:33.500Z,15.26
2022-10-11T18:54:01.166Z,15.21
2022-10-11T18:56:29.511Z,15.11
2022-10-11T18:58:57.276Z,14.98
2022-10-11T19:01:31.931Z,14.86
2022-10-11T19:04:00.552Z,14.73
2022-10-11T19:06:30.362Z,14.65
2022-10-11T19:09:05.695Z,14.63
2022-10-11T19:11:33.261Z,14.57
2022-10-11T19:14:02.517Z,14.55
2022-10-11T19:16:29.955Z,14.57
2022-10-11T19:18:57.426Z,14.52
2022-10-11T19:21:27.402Z,14.48
2022-10-11T19:23:57.427Z,14.44
2022-10-11T19:26:29.117Z,14.41
2022-10-11T19:29:04.487Z,14.37
2022-10-11T19:31:32.600Z,14.35
2022-10-11T19:34:00.675Z,14.34
2022-10-11T19:36:31.383Z,14.36
2022-10-11T19:39:01.296Z,14.36
2022-10-11T19:41:28.439Z,14.37
2022-10-11T19:43:57.950Z,14.32
2022-10-11T19:46:49.893Z,14.33
2022-10-11T19:49:17.599Z,14.33
2022-10-11T19:51:44.863Z,14.35
2022-10-11T19:54:13.707Z,14.32
2022-10-11T19:56:41.184Z,14.34
2022-10-11T19:59:08.575Z,14.37
2022-10-11T20:01:36.287Z,14.37
2022-10-11T20:04:08.345Z,14.41
2022-10-11T20:06:38.631Z,14.46
2022-10-11T20:11:54.110Z,14.51
2022-10-11T20:14:21.307Z,14.56
2022-10-11T20:16:50.135Z,14.59
2022-10-11T20:19:17.286Z,14.59
2022-10-11T20:21:45.120Z,14.56
2022-10-11T20:24:12.178Z,14.58
2022-10-11T20:26:39.382Z,14.54
2022-10-11T20:29:07.182Z,14.56
2022-10-11T20:31:35.014Z,14.54
2022-10-11T20:34:04.242Z,14.58
2022-10-11T20:36:32.468Z,14.56
2022-10-11T20:39:00.001Z,14.49
2022-10-11T20:41:33.004Z,14.41
2022-10-11T20:44:01.364Z,14.37
2022-10-11T20:46:31.282Z,14.23
2022-10-11T20:49:03.426Z,14.18
2022-10-11T20:51:31.745Z,14.12
2022-10-11T20:53:59.168Z,14.05
2022-10-11T20:56:29.775Z,14.00
2022-10-11T20:58:58.219Z,13.91
2022-10-11T21:01:34.397Z,13.93
2022-10-11T21:04:01.963Z,13.89
2022-10-11T21:06:29.981Z,13.89
2022-10-11T21:09:00.447Z,13.81
2022-10-11T21:11:33.314Z,13.74
2022-10-11T21:14:02.319Z,13.66
2022-10-11T21:16:30.080Z,13.58
2022-10-11T21:18:58.665Z,13.47
2022-10-11T21:21:29.356Z,13.35
2022-10-11T21:24:01.059Z,13.28
2022-10-11T21:26:30.994Z,13.23
2022-10-11T21:29:03.900Z,13.20
2022-10-11T21:31:34.095Z,13.22
2022-10-11T21:34:02.287Z,13.19
2022-10-11T21:36:29.157Z,13.11
2022-10-11T21:38:56.349Z,13.05
2022-10-11T21:41:29.957Z,13.03
2022-10-11T21:43:59.940Z,13.00
2022-10-11T21:49:18.596Z,12.93
2022-10-11T21:51:45.698Z,12.89
2022-10-11T21:54:12.549Z,12.84
2022-10-11T21:56:39.412Z,12.75
2022-10-11T21:59:09.510Z,12.70
2022-10-11T22:01:39.557Z,12.72
2022-10-11T22:04:09.568Z,12.68
2022-10-11T22:06:37.354Z,12.60
2022-10-11T22:09:05.006Z,12.55
2022-10-11T22:11:32.126Z,12.57
2022-10-11T22:13:59.061Z,12.47
2022-10-11T22:16:25.940Z,12.33
2022-10-11T22:18:56.199Z,12.20
2022-10-11T22:21:27.077Z,12.21
2022-10-11T22:23:57.676Z,12.21
2022-10-11T22:26:32.137Z,12.10
2022-10-11T22:29:02.111Z,12.07
2022-10-11T22:31:29.387Z,12.04
2022-10-11T22:34:00.035Z,11.97
2022-10-11T22:36:28.213Z,11.90
2022-10-11T22:38:58.664Z,11.89
2022-10-11T22:41:28.521Z,11.88
2022-10-11T22:43:58.726Z,11.78
2022-10-11T22:46:28.612Z,11.76
2022-10-11T22:48:55.729Z,11.72
2022-10-11T22:51:22.638Z,11.68
2022-10-11T22:53:49.489Z,11.68
2022-10-11T22:56:16.691Z,11.75
2022-10-11T22:58:43.551Z,11.66
2022-10-11T23:01:12.097Z,11.55
2022-10-11T23:03:39.334Z,11.53
2022-10-11T23:06:06.527Z,11.47
2022-10-11T23:08:33.404Z,11.45
2022-10-11T23:11:07.215Z,11.42
2022-10-11T23:13:34.586Z,11.31
2022-10-11T23:16:09.408Z,11.30
2022-10-11T23:18:36.425Z,11.27
2022-10-11T23:21:04.349Z,11.32
2022-10-11T23:23:31.196Z,11.38
2022-10-11T23:26:05.130Z,11.34
2022-10-11T23:28:32.342Z,11.24
2022-10-11T23:30:59.338Z,11.21
2022-10-11T23:33:27.886Z,11.20
2022-10-11T23:35:55.075Z,11.18
2022-10-11T23:38:21.949Z,11.26
2022-10-11T23:40:48.809Z,11.17
2022-10-11T23:43:15.917Z,11.10
2022-10-11T23:45:43.830Z,11.18
2022-10-11T23:48:10.771Z,11.24
2022-10-11T23:50:37.865Z,11.25
2022-10-11T23:53:04.865Z,11.36
2022-10-11T23:55:31.730Z,11.38
2022-10-11T23:57:58.840Z,11.36
